Etusivu
METAR-TAF:

METAR-TAF

Lentoasemat :

Fosston Municipal Airport

Fosston, Minnesota, Yhdysvallat

Leveyspiiri: 47-35-34N, Pituuspiiri: 095-46-24W, korkeus merenpinnasta: 389 m

Tämänhetkinen sää

Tämä raportti tehtiin 26 minuuttia sitten, kello 09.16 UTC
Tuuli 6 kn luoteesta
Lämpötila 1°C
Kosteus 86%
Ilmanpaine 1018 hPa
Näkyvyys: 16.1 km
Hajonneita pilviä 2100 ft:n korkeudessa

METAR: KFSE 260916Z AUTO 31006KT 10SM BKN021 01/M01 A3005 RMK AO2

Aika: 04:42 (09:42 UTC)


TAF: puuttuu

Säähavainnot ja -ennusteet yli 4000 lentoasemalta (METAR- ja TAF-raportit).

Käytössä olevat sääasemat on merkitty karttaan keltaisilla ja punaisilla pisteillä.

Aseta hiiri pisteen päälle nähdäksesi sääaseman nimen.

Klikkaa sitten nähdäksesi säähavainnot ja -ennusteet.

Kartan vaihtaminen: klikkaa mustalla rastilla varustettuja vihreitä pisteitä, niin voit zoomata sisään; viivalla varustettua vihreää pistettä, niin voit zoomata ulos tai vihreitä nuolia, niin pääset viereisille kartoille.


METAR-TAF: